Aérodrome :
LOGIN :

S'inscrire | Disclaimer

   EN    FR    IT 

 










Légende :    VFR   VFR Marginal   IFR   IFR Intensif   IFR Très Intensif
Visi : 
Plafond : 
>= 8 km
>= 3000ft
5 à 8 km
1000 à 3000 ft
1500m à 5 km
500 à 1000 ft
800 à 1500m
200 à 500 ft
< 800m
< 200 ft
Symboles :   Orages  Brouillard  Fortes neiges  Fortes précipitations  Vent > 20 kt
SIGMETs :   Divers  Orages  Givrage  Turbulence  Onde Orograph.  Cendres Volcan.






- Altitude de l'aérodrome : 289 ft
- Code IATA : ZAD


LDZD - Zadar

DERNIER METAR :
  • 250930Z 09005KT 050V140 9999 FEW035 18/13 Q1015 NOSIG

METARs EXPIRÉS :
  • 250900Z 11006KT 050V160 9999 FEW035 17/13 Q1015 NOSIG
  • 250830Z 13008KT 100V160 9999 FEW035 17/13 Q1015 NOSIG
  • 250800Z 11008KT 070V140 9999 FEW035 16/13 Q1014 NOSIG
  • 250730Z 11008KT 080V140 9999 FEW035 SCT055 15/13 Q1014 NOSIG
  • 250700Z 11007KT 070V150 9999 FEW035 SCT055 14/13 Q1014 NOSIG

TAF TAF LDZD
Valide du 25 à 06h jusqu'au 26 à 06h UTC


250532Z 2506/2606 13008KT 9999 SCT040 TX18/2512Z TN10/2521Z
BECMG 2510/2512 28008KT
BECMG 2515/2517 VRB02KT
TEMPO 2518/2606 2000 BCFG
PROB30 2520/2603 0400 FG VV002
PROB40
TEMPO 2602/2606 13006KT OVC002



MET'MAP, la Météo Aéronautique d'un coup d'oeil ! - Copyright ORBIFLY Décembre 2007 - Disclaimer

ORBIFLY MET'MAP TEAM :

Programmation & Développement : Alexandra Zaïnal
Sur une idée originale de : Baudouin d'Aumeries
Assistance à la programmation : Marc-Olivier Méhu
Soutien technique & logistique : Manuel Goepfert

Contact : metmap@orbifly.com




SOURCES & CREDITS :

   NOAA